x

Long Key, Fl (lonf1) Weather Station

12:00am - Sun 23rd Nov 2014 All times are CST. -5 hours from GMT.

  • Wind
    20mph, 23mph gusts
  • Sea Temp 74°f
  • Air Temp 77°f
  • Sea Pressure 1017.8mb
  • Long Key, Fl
  • Long Key, Fl

More Historic Weather Station data

Upgrade to MSW Pro to gain access to the past 30 days of data for over 8000 Wavebouys and Weather Stations around the globe.

Join Pro

Comparision Forecast

View Surf forecast
   
Sun 11/23 12:00am 20 23 mph 1017.8mb 74f 77f
Sat 11/22 11:00pm 20 23 mph 1018.5mb 74f 77f
10:00pm 18 21 mph 1018.7mb 74f 77f
9:00pm 17 21 mph 1018.7mb 74f 77f
8:00pm 17 20 mph 1018.3mb 74f 76f
7:00pm 17 21 mph 1018.2mb 74f 77f
6:00pm 18 22 mph 1017.8mb 74f 77f
5:00pm 20 22 mph 1017.6mb 74f 77f
4:00pm 18 21 mph 1017.8mb 74f 77f
3:00pm 18 21 mph 1018.2mb 74f 77f
2:00pm 20 21 mph 1018.7mb 74f 77f
1:00pm 21 23 mph 1019.5mb 74f 77f
12:00pm 22 24 mph 1020.3mb 73f 77f
11:00am 20 22 mph 1021.1mb 73f 77f
10:00am 17 20 mph 1021.5mb 73f 77f
9:00am 16 18 mph 1021.4mb 72f 76f
8:00am 18 21 mph 1020.9mb 72f 76f
7:00am 17 20 mph 1020.5mb 72f 75f
6:00am 21 23 mph 1019.9mb 72f 75f
5:00am 22 25 mph 1019.8mb 72f 76f
4:00am 21 23 mph 1019.9mb 72f 76f
3:00am 18 21 mph 1019.9mb 72f 75f
2:00am 18 22 mph 1019.9mb 72f 75f
1:00am 22 25 mph 1019.9mb 72f 76f
12:00am 21 24 mph 1020.5mb 72f 75f
Fri 11/21 11:00pm 21 22 mph 1020.9mb 72f 75f
10:00pm 22 24 mph 1021mb 72f 75f
9:00pm 20 21 mph 1020.7mb 72f 74f
8:00pm 21 23 mph 1020.6mb 72f 73f
7:00pm 21 24 mph 1020.1mb 72f 73f
6:00pm 23 25 mph 1019.5mb 72f 73f
5:00pm 23 26 mph 1019.3mb 72f 73f
4:00pm 15 17 mph 1019.1mb 72f 73f
3:00pm 17 18 mph 1018.8mb 72f 72f
2:00pm 17 20 mph 1019.2mb 72f 72f
1:00pm 16 17 mph 1019.5mb 72f 72f
12:00pm 21 23 mph 1020.6mb 72f 71f
11:00am 16 18 mph 1021.1mb 71f 70f
10:00am 17
mph
1021.5mb 71f 70f
9:00am 16 18 mph 1021.2mb 71f 71f
8:00am 16 18 mph 1020.1mb 71f 71f
7:00am 18 21 mph 1019.3mb 71f 71f
6:00am 17 20 mph 1018.8mb 71f 71f
5:00am 21 23 mph 1018.3mb 71f 70f
4:00am 20 22 mph 1018.3mb 71f 70f
3:00am 20 21 mph 1018.8mb 71f 70f
2:00am 20 22 mph 1018.9mb 71f 71f
1:00am 20 22 mph 1019.5mb 71f 71f
12:00am 18 22 mph 1019.9mb 71f 71f
Thu 11/20 11:00pm 23 26 mph 1020.4mb 71f 71f
10:00pm 24 29 mph 1019.7mb 71f 71f
9:00pm 23 26 mph 1020.2mb 71f 72f
8:00pm 23 29 mph 1019.8mb 71f 72f
7:00pm 17 20 mph 1019.5mb 71f 73f
6:00pm 20 21 mph 1018.9mb 71f 73f
5:00pm 18 21 mph 1018.9mb 71f 73f
4:00pm 16 18 mph 1018.6mb 71f 73f
3:00pm 16 17 mph 1018.4mb 71f 73f
2:00pm 15 18 mph 1018.6mb 71f 73f
1:00pm 11 14 mph 1019.3mb 71f 72f
12:00pm 13 14 mph 1020.2mb 70f 70f
11:00am 15 17 mph 1021.1mb 70f 67f
10:00am 17 21 mph 1021.6mb 70f 66f
9:00am 20 21 mph 1021.5mb 70f 65f
8:00am 21 23 mph 1021mb 70f 65f
7:00am 22 25 mph 1020.3mb 70f 65f
6:00am 23 25 mph 1020mb 70f 64f
5:00am 21 24 mph 1019.9mb 70f 65f
4:00am 21 23 mph 1019.9mb 70f 64f
3:00am 22 24 mph 1020mb 71f 65f
2:00am 21 23 mph 1020.4mb 71f 65f
1:00am 21 22 mph 1020.7mb 71f 65f
12:00am 20 23 mph 1020.9mb 71f 65f
Wed 11/19 11:00pm 24 26 mph 1021.4mb 71f 65f
10:00pm 22 24 mph 1021.3mb 71f 66f
9:00pm 20 22 mph 1021.4mb 71f 67f
8:00pm 22 24 mph 1021.4mb 71f 65f
7:00pm 26 31 mph 1021mb 72f 64f
6:00pm 24 26 mph 1021mb 72f 65f
5:00pm 23 26 mph 1020.9mb 72f 64f
4:00pm 23 26 mph 1020.8mb 72f 64f
3:00pm 24 26 mph 1020.7mb 72f 64f
2:00pm 25 28 mph 1020.8mb 72f 64f
1:00pm 24 26 mph 1021.2mb 73f 64f
12:00pm 22 24 mph 1022.2mb 73f 63f
11:00am 21 24 mph 1023.1mb 73f 63f
10:00am 21 24 mph 1023.2mb 73f 64f
9:00am 26 29 mph 1022.9mb 73f 63f
8:00am 24 26 mph 1022.3mb 73f 63f
7:00am 28 30 mph 1021.5mb 74f 62f